sensor_id;sensor_type;location;lat;lon;timestamp;pressure;altitude;pressure_sealevel;temperature;humidity
54556;BME280;57291;37.520;15.106;2023-04-27T00:01:22;101262.16;;;15.21;94.94
54556;BME280;57291;37.520;15.106;2023-04-27T00:03:50;101260.38;;;15.25;94.98
54556;BME280;57291;37.520;15.106;2023-04-27T00:06:17;101250.41;;;15.30;94.84
54556;BME280;57291;37.520;15.106;2023-04-27T00:08:45;101257.25;;;15.41;94.32
54556;BME280;57291;37.520;15.106;2023-04-27T00:11:13;101256.00;;;15.47;94.24
54556;BME280;57291;37.520;15.106;2023-04-27T00:13:41;101256.47;;;15.49;93.91
54556;BME280;57291;37.520;15.106;2023-04-27T00:16:08;101248.94;;;15.55;93.80
54556;BME280;57291;37.520;15.106;2023-04-27T00:18:36;101247.50;;;15.57;93.87
54556;BME280;57291;37.520;15.106;2023-04-27T00:21:04;101246.88;;;15.60;93.69
54556;BME280;57291;37.520;15.106;2023-04-27T00:23:32;101254.75;;;15.62;93.61
54556;BME280;57291;37.520;15.106;2023-04-27T00:25:59;101248.16;;;15.63;93.94
54556;BME280;57291;37.520;15.106;2023-04-27T00:28:27;101247.25;;;15.67;93.68
54556;BME280;57291;37.520;15.106;2023-04-27T00:30:57;101252.53;;;15.64;94.13
54556;BME280;57291;37.520;15.106;2023-04-27T00:33:26;101249.28;;;15.62;94.60
54556;BME280;57291;37.520;15.106;2023-04-27T00:35:54;101248.97;;;15.63;94.05
54556;BME280;57291;37.520;15.106;2023-04-27T00:38:21;101253.97;;;15.61;93.40
54556;BME280;57291;37.520;15.106;2023-04-27T00:40:48;101246.19;;;15.55;92.60
54556;BME280;57291;37.520;15.106;2023-04-27T00:43:18;101249.91;;;15.50;92.10
54556;BME280;57291;37.520;15.106;2023-04-27T00:45:46;101252.75;;;15.45;91.82
54556;BME280;57291;37.520;15.106;2023-04-27T00:48:14;101242.59;;;15.37;91.32
54556;BME280;57291;37.520;15.106;2023-04-27T00:50:42;101250.28;;;15.35;91.16
54556;BME280;57291;37.520;15.106;2023-04-27T00:53:11;101244.94;;;15.30;91.11
54556;BME280;57291;37.520;15.106;2023-04-27T00:55:41;101254.63;;;15.27;91.31
54556;BME280;57291;37.520;15.106;2023-04-27T00:58:08;101249.59;;;15.20;91.15
54556;BME280;57291;37.520;15.106;2023-04-27T01:00:37;101253.75;;;15.18;91.31
54556;BME280;57291;37.520;15.106;2023-04-27T01:03:06;101248.41;;;15.13;91.46
54556;BME280;57291;37.520;15.106;2023-04-27T01:05:36;101251.47;;;15.11;91.75
54556;BME280;57291;37.520;15.106;2023-04-27T01:08:04;101247.91;;;15.11;92.09
54556;BME280;57291;37.520;15.106;2023-04-27T01:10:33;101245.47;;;15.09;91.86
54556;BME280;57291;37.520;15.106;2023-04-27T01:13:01;101242.56;;;15.06;91.72
54556;BME280;57291;37.520;15.106;2023-04-27T01:15:30;101245.28;;;15.06;91.80
54556;BME280;57291;37.520;15.106;2023-04-27T01:18:01;101253.84;;;15.04;91.79
54556;BME280;57291;37.520;15.106;2023-04-27T01:20:29;101248.53;;;15.08;91.64
54556;BME280;57291;37.520;15.106;2023-04-27T01:22:57;101250.47;;;15.07;91.35
54556;BME280;57291;37.520;15.106;2023-04-27T01:25:25;101255.63;;;15.09;91.18
54556;BME280;57291;37.520;15.106;2023-04-27T01:27:53;101252.38;;;15.07;90.85
54556;BME280;57291;37.520;15.106;2023-04-27T01:30:20;101255.13;;;15.07;90.77
54556;BME280;57291;37.520;15.106;2023-04-27T01:32:48;101264.03;;;15.12;90.81
54556;BME280;57291;37.520;15.106;2023-04-27T01:35:18;101254.66;;;15.13;90.39
54556;BME280;57291;37.520;15.106;2023-04-27T01:37:46;101255.81;;;15.12;90.28
54556;BME280;57291;37.520;15.106;2023-04-27T01:40:16;101257.75;;;15.12;90.13
54556;BME280;57291;37.520;15.106;2023-04-27T01:42:44;101261.28;;;15.12;90.30
54556;BME280;57291;37.520;15.106;2023-04-27T01:45:12;101269.19;;;15.14;90.18
54556;BME280;57291;37.520;15.106;2023-04-27T01:47:40;101270.63;;;15.11;89.81
54556;BME280;57291;37.520;15.106;2023-04-27T01:50:08;101274.78;;;15.09;89.95
54556;BME280;57291;37.520;15.106;2023-04-27T01:52:35;101269.31;;;15.09;90.11
54556;BME280;57291;37.520;15.106;2023-04-27T01:55:04;101266.56;;;15.09;89.78
54556;BME280;57291;37.520;15.106;2023-04-27T01:57:32;101271.88;;;15.05;89.83
54556;BME280;57291;37.520;15.106;2023-04-27T02:00:00;101278.47;;;15.04;89.95
54556;BME280;57291;37.520;15.106;2023-04-27T02:02:46;101281.81;;;15.01;89.91
54556;BME280;57291;37.520;15.106;2023-04-27T02:05:14;101281.31;;;14.99;89.95
54556;BME280;57291;37.520;15.106;2023-04-27T02:07:44;101276.97;;;14.98;90.12
54556;BME280;57291;37.520;15.106;2023-04-27T02:10:12;101278.91;;;14.97;90.28
54556;BME280;57291;37.520;15.106;2023-04-27T02:12:40;101274.34;;;14.93;90.33
54556;BME280;57291;37.520;15.106;2023-04-27T02:15:08;101272.75;;;14.92;90.29
54556;BME280;57291;37.520;15.106;2023-04-27T02:17:37;101280.78;;;14.88;90.49
54556;BME280;57291;37.520;15.106;2023-04-27T02:20:06;101286.53;;;14.87;90.63
54556;BME280;57291;37.520;15.106;2023-04-27T02:22:34;101286.53;;;14.87;90.73
54556;BME280;57291;37.520;15.106;2023-04-27T02:25:02;101289.78;;;14.89;90.54
54556;BME280;57291;37.520;15.106;2023-04-27T02:27:30;101288.19;;;14.88;90.33
54556;BME280;57291;37.520;15.106;2023-04-27T02:29:58;101289.78;;;14.89;90.40
54556;BME280;57291;37.520;15.106;2023-04-27T02:32:26;101289.28;;;14.87;90.12
54556;BME280;57291;37.520;15.106;2023-04-27T02:34:53;101287.66;;;14.86;89.86
54556;BME280;57291;37.520;15.106;2023-04-27T02:37:25;101285.03;;;14.81;89.79
54556;BME280;57291;37.520;15.106;2023-04-27T02:39:54;101290.03;;;14.78;90.02
54556;BME280;57291;37.520;15.106;2023-04-27T02:42:22;101288.00;;;14.70;89.49
54556;BME280;57291;37.520;15.106;2023-04-27T02:44:50;101293.63;;;14.65;89.58
54556;BME280;57291;37.520;15.106;2023-04-27T02:47:18;101297.25;;;14.61;89.17
54556;BME280;57291;37.520;15.106;2023-04-27T02:49:46;101293.25;;;14.58;88.61
54556;BME280;57291;37.520;15.106;2023-04-27T02:52:13;101289.47;;;14.54;87.77
54556;BME280;57291;37.520;15.106;2023-04-27T02:54:41;101282.72;;;14.51;87.45
54556;BME280;57291;37.520;15.106;2023-04-27T02:57:08;101281.38;;;14.49;86.61
54556;BME280;57291;37.520;15.106;2023-04-27T02:59:36;101284.09;;;14.49;85.78
54556;BME280;57291;37.520;15.106;2023-04-27T03:02:04;101280.88;;;14.47;85.29
54556;BME280;57291;37.520;15.106;2023-04-27T03:04:32;101279.25;;;14.46;84.39
54556;BME280;57291;37.520;15.106;2023-04-27T03:07:04;101287.47;;;14.46;83.52
54556;BME280;57291;37.520;15.106;2023-04-27T03:09:31;101287.13;;;14.47;83.03
54556;BME280;57291;37.520;15.106;2023-04-27T03:11:59;101288.78;;;14.48;82.48
54556;BME280;57291;37.520;15.106;2023-04-27T03:14:26;101280.88;;;14.47;82.11
54556;BME280;57291;37.520;15.106;2023-04-27T03:16:54;101279.25;;;14.46;81.88
54556;BME280;57291;37.520;15.106;2023-04-27T03:19:23;101286.34;;;14.47;81.81
54556;BME280;57291;37.520;15.106;2023-04-27T03:21:50;101288.78;;;14.48;81.42
54556;BME280;57291;37.520;15.106;2023-04-27T03:24:18;101285.72;;;14.50;80.94
54556;BME280;57291;37.520;15.106;2023-04-27T03:26:46;101289.59;;;14.49;80.87
54556;BME280;57291;37.520;15.106;2023-04-27T03:29:14;101291.81;;;14.47;80.78
54556;BME280;57291;37.520;15.106;2023-04-27T03:31:41;101286.94;;;14.44;80.48
54556;BME280;57291;37.520;15.106;2023-04-27T03:34:09;101282.59;;;14.43;80.50
54556;BME280;57291;37.520;15.106;2023-04-27T03:36:38;101285.53;;;14.46;80.45
54556;BME280;57291;37.520;15.106;2023-04-27T03:39:08;101278.44;;;14.45;80.01
54556;BME280;57291;37.520;15.106;2023-04-27T03:41:36;101279.53;;;14.44;79.75
54556;BME280;57291;37.520;15.106;2023-04-27T03:44:04;101276.34;;;14.42;79.66
54556;BME280;57291;37.520;15.106;2023-04-27T03:46:33;101279.88;;;14.43;79.57
54556;BME280;57291;37.520;15.106;2023-04-27T03:49:01;101281.47;;;14.44;79.42
54556;BME280;57291;37.520;15.106;2023-04-27T03:51:30;101274.72;;;14.41;79.11
54556;BME280;57291;37.520;15.106;2023-04-27T03:54:01;101276.63;;;14.41;79.10
54556;BME280;57291;37.520;15.106;2023-04-27T03:56:29;101267.13;;;14.38;79.06
54556;BME280;57291;37.520;15.106;2023-04-27T03:58:57;101274.50;;;14.38;79.04
54556;BME280;57291;37.520;15.106;2023-04-27T04:01:32;101270.16;;;14.37;79.11
54556;BME280;57291;37.520;15.106;2023-04-27T04:04:02;101273.41;;;14.39;79.02
54556;BME280;57291;37.520;15.106;2023-04-27T04:06:31;101278.06;;;14.38;78.64
54556;BME280;57291;37.520;15.106;2023-04-27T04:08:59;101288.69;;;14.40;78.61
54556;BME280;57291;37.520;15.106;2023-04-27T04:11:27;101293.88;;;14.41;78.30
54556;BME280;57291;37.520;15.106;2023-04-27T04:13:57;101299.81;;;14.43;78.27
54556;BME280;57291;37.520;15.106;2023-04-27T04:16:25;101304.16;;;14.44;78.08
54556;BME280;57291;37.520;15.106;2023-04-27T04:18:53;101316.41;;;14.47;78.01
54556;BME280;57291;37.520;15.106;2023-04-27T04:21:21;101311.97;;;14.51;77.73
54556;BME280;57291;37.520;15.106;2023-04-27T04:23:49;101317.34;;;14.56;77.70
54556;BME280;57291;37.520;15.106;2023-04-27T04:26:18;101306.59;;;14.60;77.23
54556;BME280;57291;37.520;15.106;2023-04-27T04:28:46;101311.63;;;14.66;77.16
54556;BME280;57291;37.520;15.106;2023-04-27T04:31:15;101321.69;;;14.71;77.26
54556;BME280;57291;37.520;15.106;2023-04-27T04:33:44;101329.47;;;14.77;76.97
54556;BME280;57291;37.520;15.106;2023-04-27T04:36:14;101338.84;;;14.85;76.64
54556;BME280;57291;37.520;15.106;2023-04-27T04:38:42;101335.38;;;14.93;76.03
54556;BME280;57291;37.520;15.106;2023-04-27T04:41:09;101351.06;;;15.01;75.27
54556;BME280;57291;37.520;15.106;2023-04-27T04:43:37;101345.16;;;15.08;75.04
54556;BME280;57291;37.520;15.106;2023-04-27T04:46:06;101342.78;;;15.15;74.37
54556;BME280;57291;37.520;15.106;2023-04-27T04:48:34;101338.31;;;15.19;73.16
54556;BME280;57291;37.520;15.106;2023-04-27T04:51:04;101334.84;;;15.28;72.61
54556;BME280;57291;37.520;15.106;2023-04-27T04:53:33;101336.63;;;15.32;71.71
54556;BME280;57291;37.520;15.106;2023-04-27T04:56:11;101334.06;;;15.36;71.51
54556;BME280;57291;37.520;15.106;2023-04-27T04:58:39;101342.53;;;15.48;71.42
54556;BME280;57291;37.520;15.106;2023-04-27T05:01:08;101356.22;;;15.70;71.43
54556;BME280;57291;37.520;15.106;2023-04-27T05:03:36;101360.06;;;16.01;71.05
54556;BME280;57291;37.520;15.106;2023-04-27T05:06:04;101356.31;;;16.45;70.30
54556;BME280;57291;37.520;15.106;2023-04-27T05:08:32;101359.63;;;17.34;69.32
54556;BME280;57291;37.520;15.106;2023-04-27T05:11:00;101353.19;;;18.83;64.40
54556;BME280;57291;37.520;15.106;2023-04-27T05:13:28;101345.63;;;20.29;58.35
54556;BME280;57291;37.520;15.106;2023-04-27T05:15:55;101360.91;;;21.44;53.40
54556;BME280;57291;37.520;15.106;2023-04-27T05:18:23;101363.63;;;22.35;50.39
54556;BME280;57291;37.520;15.106;2023-04-27T05:20:51;101358.75;;;23.41;49.23
54556;BME280;57291;37.520;15.106;2023-04-27T05:23:19;101357.66;;;24.15;45.54
54556;BME280;57291;37.520;15.106;2023-04-27T05:25:47;101362.78;;;24.93;43.20
54556;BME280;57291;37.520;15.106;2023-04-27T05:28:15;101362.09;;;25.37;40.97
54556;BME280;57291;37.520;15.106;2023-04-27T05:30:43;101368.56;;;25.82;39.12
54556;BME280;57291;37.520;15.106;2023-04-27T05:33:10;101369.25;;;26.16;37.40
54556;BME280;57291;37.520;15.106;2023-04-27T05:35:38;101373.50;;;26.58;36.62
54556;BME280;57291;37.520;15.106;2023-04-27T05:38:06;101374.81;;;26.78;36.78
54556;BME280;57291;37.520;15.106;2023-04-27T05:40:33;101379.44;;;27.29;36.54
54556;BME280;57291;37.520;15.106;2023-04-27T05:43:01;101373.16;;;27.65;35.11
54556;BME280;57291;37.520;15.106;2023-04-27T05:45:31;101372.34;;;27.75;35.37
54556;BME280;57291;37.520;15.106;2023-04-27T05:47:59;101369.53;;;27.57;34.93
54556;BME280;57291;37.520;15.106;2023-04-27T05:50:27;101366.34;;;27.69;35.04
54556;BME280;57291;37.520;15.106;2023-04-27T05:52:55;101382.66;;;27.39;33.72
54556;BME280;57291;37.520;15.106;2023-04-27T05:55:22;101382.69;;;27.56;34.39
54556;BME280;57291;37.520;15.106;2023-04-27T05:57:50;101378.34;;;27.80;33.48
54556;BME280;57291;37.520;15.106;2023-04-27T06:00:34;101382.34;;;28.12;31.62
54556;BME280;57291;37.520;15.106;2023-04-27T06:03:02;101391.94;;;28.00;31.99
54556;BME280;57291;37.520;15.106;2023-04-27T06:05:31;101393.13;;;28.24;32.86
54556;BME280;57291;37.520;15.106;2023-04-27T06:08:00;101386.72;;;28.34;33.26
54556;BME280;57291;37.520;15.106;2023-04-27T06:10:28;101387.97;;;28.40;33.70
54556;BME280;57291;37.520;15.106;2023-04-27T06:12:56;101393.53;;;28.37;33.97
54556;BME280;57291;37.520;15.106;2023-04-27T06:15:23;101401.41;;;27.42;34.67
54556;BME280;57291;37.520;15.106;2023-04-27T06:17:51;101394.81;;;26.98;35.73
54556;BME280;57291;37.520;15.106;2023-04-27T06:20:19;101384.50;;;25.47;39.02
54556;BME280;57291;37.520;15.106;2023-04-27T06:22:47;101382.16;;;24.32;41.06
54556;BME280;57291;37.520;15.106;2023-04-27T06:25:14;101381.72;;;24.30;40.58
54556;BME280;57291;37.520;15.106;2023-04-27T06:27:42;101382.44;;;23.78;42.46
54556;BME280;57291;37.520;15.106;2023-04-27T06:30:10;101385.00;;;23.67;40.97
54556;BME280;57291;37.520;15.106;2023-04-27T06:32:38;101373.53;;;24.15;40.84
54556;BME280;57291;37.520;15.106;2023-04-27T06:35:07;101367.97;;;24.15;41.42
54556;BME280;57291;37.520;15.106;2023-04-27T06:37:34;101358.13;;;23.71;42.19
54556;BME280;57291;37.520;15.106;2023-04-27T06:40:02;101373.84;;;22.86;43.53
54556;BME280;57291;37.520;15.106;2023-04-27T06:42:30;101377.09;;;22.37;45.03
54556;BME280;57291;37.520;15.106;2023-04-27T06:44:57;101379.59;;;22.10;44.75
54556;BME280;57291;37.520;15.106;2023-04-27T06:47:25;101386.16;;;22.18;43.71
54556;BME280;57291;37.520;15.106;2023-04-27T06:49:53;101387.88;;;22.58;43.46
54556;BME280;57291;37.520;15.106;2023-04-27T06:52:21;101392.44;;;22.50;44.32
54556;BME280;57291;37.520;15.106;2023-04-27T06:54:49;101376.13;;;22.13;45.50
54556;BME280;57291;37.520;15.106;2023-04-27T06:57:17;101380.09;;;22.28;44.85
54556;BME280;57291;37.520;15.106;2023-04-27T06:59:44;101377.63;;;22.11;45.92
54556;BME280;57291;37.520;15.106;2023-04-27T07:02:12;101369.91;;;22.16;47.04
54556;BME280;57291;37.520;15.106;2023-04-27T07:04:40;101373.91;;;22.35;45.40
54556;BME280;57291;37.520;15.106;2023-04-27T07:07:09;101385.13;;;22.10;45.93
54556;BME280;57291;37.520;15.106;2023-04-27T07:09:37;101379.34;;;21.84;46.60
54556;BME280;57291;37.520;15.106;2023-04-27T07:12:04;101390.50;;;22.03;47.92
54556;BME280;57291;37.520;15.106;2023-04-27T07:14:32;101382.03;;;22.12;47.33
54556;BME280;57291;37.520;15.106;2023-04-27T07:17:00;101385.66;;;21.84;48.48
54556;BME280;57291;37.520;15.106;2023-04-27T07:19:28;101392.28;;;21.80;48.78
54556;BME280;57291;37.520;15.106;2023-04-27T07:21:55;101393.06;;;21.80;49.00
54556;BME280;57291;37.520;15.106;2023-04-27T07:24:23;101389.31;;;21.72;47.74
54556;BME280;57291;37.520;15.106;2023-04-27T07:26:51;101396.03;;;22.03;48.17
54556;BME280;57291;37.520;15.106;2023-04-27T07:29:19;101408.63;;;22.00;48.79
54556;BME280;57291;37.520;15.106;2023-04-27T07:31:53;101406.34;;;22.18;49.35
54556;BME280;57291;37.520;15.106;2023-04-27T07:34:24;101409.44;;;22.33;48.12
54556;BME280;57291;37.520;15.106;2023-04-27T07:36:55;101404.06;;;21.76;48.82
54556;BME280;57291;37.520;15.106;2023-04-27T07:39:23;101398.25;;;21.66;49.07
54556;BME280;57291;37.520;15.106;2023-04-27T07:41:51;101394.91;;;21.32;50.89
54556;BME280;57291;37.520;15.106;2023-04-27T07:44:19;101400.34;;;21.57;50.84
54556;BME280;57291;37.520;15.106;2023-04-27T07:46:47;101402.19;;;21.96;49.06
54556;BME280;57291;37.520;15.106;2023-04-27T07:49:15;101410.25;;;22.17;46.95
54556;BME280;57291;37.520;15.106;2023-04-27T07:51:43;101406.06;;;22.23;48.44
54556;BME280;57291;37.520;15.106;2023-04-27T07:54:10;101418.81;;;22.12;48.33
54556;BME280;57291;37.520;15.106;2023-04-27T07:56:41;101420.91;;;22.31;47.17
54556;BME280;57291;37.520;15.106;2023-04-27T07:59:09;101411.97;;;22.38;47.79
54556;BME280;57291;37.520;15.106;2023-04-27T08:01:38;101416.63;;;22.18;46.64
54556;BME280;57291;37.520;15.106;2023-04-27T08:07:22;101413.94;;;22.21;45.89
54556;BME280;57291;37.520;15.106;2023-04-27T08:09:53;101420.41;;;22.13;46.64
54556;BME280;57291;37.520;15.106;2023-04-27T08:12:20;101406.22;;;22.15;45.90
54556;BME280;57291;37.520;15.106;2023-04-27T08:14:47;101421.50;;;22.09;46.12
54556;BME280;57291;37.520;15.106;2023-04-27T08:17:15;101416.22;;;22.04;46.73
54556;BME280;57291;37.520;15.106;2023-04-27T08:19:44;101417.91;;;21.92;45.58
54556;BME280;57291;37.520;15.106;2023-04-27T08:22:11;101420.44;;;21.53;46.61
54556;BME280;57291;37.520;15.106;2023-04-27T08:24:38;101415.13;;;21.20;48.25
54556;BME280;57291;37.520;15.106;2023-04-27T08:27:06;101423.25;;;20.89;49.06
54556;BME280;57291;37.520;15.106;2023-04-27T08:29:33;101420.28;;;20.81;49.52
54556;BME280;57291;37.520;15.106;2023-04-27T08:32:02;101421.16;;;20.98;49.02
54556;BME280;57291;37.520;15.106;2023-04-27T08:34:30;101419.38;;;21.18;49.23
54556;BME280;57291;37.520;15.106;2023-04-27T08:36:57;101416.56;;;21.30;48.07
54556;BME280;57291;37.520;15.106;2023-04-27T08:39:26;101410.81;;;21.35;47.24
54556;BME280;57291;37.520;15.106;2023-04-27T08:41:53;101414.13;;;21.13;46.97
54556;BME280;57291;37.520;15.106;2023-04-27T08:44:21;101427.41;;;20.82;48.99
54556;BME280;57291;37.520;15.106;2023-04-27T08:46:48;101425.59;;;20.62;49.92
54556;BME280;57291;37.520;15.106;2023-04-27T08:49:17;101428.13;;;20.55;50.46
54556;BME280;57291;37.520;15.106;2023-04-27T08:51:44;101429.94;;;20.26;49.87
54556;BME280;57291;37.520;15.106;2023-04-27T08:54:11;101419.28;;;19.79;51.23
54556;BME280;57291;37.520;15.106;2023-04-27T08:56:38;101427.47;;;19.55;52.82
54556;BME280;57291;37.520;15.106;2023-04-27T08:59:12;101436.53;;;19.34;54.87
54556;BME280;57291;37.520;15.106;2023-04-27T09:01:45;101434.00;;;19.08;54.03
54556;BME280;57291;37.520;15.106;2023-04-27T09:04:15;101432.69;;;18.85;56.73
54556;BME280;57291;37.520;15.106;2023-04-27T09:06:43;101428.22;;;18.42;57.76
54556;BME280;57291;37.520;15.106;2023-04-27T09:09:21;101443.94;;;18.41;57.17
54556;BME280;57291;37.520;15.106;2023-04-27T09:11:49;101438.81;;;18.61;56.32
54556;BME280;57291;37.520;15.106;2023-04-27T09:14:22;101435.03;;;18.44;57.63
54556;BME280;57291;37.520;15.106;2023-04-27T09:16:57;101429.78;;;18.51;57.28
54556;BME280;57291;37.520;15.106;2023-04-27T09:19:27;101435.41;;;18.64;56.81
54556;BME280;57291;37.520;15.106;2023-04-27T09:22:05;101447.75;;;18.58;58.00
54556;BME280;57291;37.520;15.106;2023-04-27T09:24:33;101443.47;;;18.69;57.74
54556;BME280;57291;37.520;15.106;2023-04-27T09:27:01;101440.31;;;18.88;56.92
54556;BME280;57291;37.520;15.106;2023-04-27T09:29:47;101444.34;;;18.90;57.24
54556;BME280;57291;37.520;15.106;2023-04-27T09:32:17;101445.09;;;19.00;56.68
54556;BME280;57291;37.520;15.106;2023-04-27T09:34:46;101439.72;;;19.03;57.02
54556;BME280;57291;37.520;15.106;2023-04-27T09:37:14;101438.84;;;18.90;57.07
54556;BME280;57291;37.520;15.106;2023-04-27T09:39:43;101444.34;;;18.90;57.55
54556;BME280;57291;37.520;15.106;2023-04-27T09:42:11;101441.94;;;18.89;57.81
54556;BME280;57291;37.520;15.106;2023-04-27T09:44:39;101438.56;;;18.83;57.45
54556;BME280;57291;37.520;15.106;2023-04-27T09:47:06;101435.00;;;19.04;57.25
54556;BME280;57291;37.520;15.106;2023-04-27T09:49:33;101437.09;;;19.07;58.42
54556;BME280;57291;37.520;15.106;2023-04-27T09:52:00;101426.41;;;19.26;55.34
54556;BME280;57291;37.520;15.106;2023-04-27T09:54:30;101427.06;;;19.44;55.87
54556;BME280;57291;37.520;15.106;2023-04-27T09:59:52;101430.25;;;19.13;57.42
54556;BME280;57291;37.520;15.106;2023-04-27T10:02:22;101427.41;;;19.21;56.03
54556;BME280;57291;37.520;15.106;2023-04-27T10:05:10;101419.69;;;19.15;55.96
54556;BME280;57291;37.520;15.106;2023-04-27T10:07:39;101428.38;;;19.26;57.67
54556;BME280;57291;37.520;15.106;2023-04-27T10:10:15;101423.06;;;19.20;57.82
54556;BME280;57291;37.520;15.106;2023-04-27T10:12:43;101426.34;;;19.14;57.00
54556;BME280;57291;37.520;15.106;2023-04-27T10:15:25;101424.59;;;19.09;58.17
54556;BME280;57291;37.520;15.106;2023-04-27T10:17:53;101420.84;;;19.14;58.80
54556;BME280;57291;37.520;15.106;2023-04-27T10:20:29;101426.72;;;19.25;58.31
54556;BME280;57291;37.520;15.106;2023-04-27T10:22:58;101419.31;;;19.25;59.12
54556;BME280;57291;37.520;15.106;2023-04-27T10:25:35;101414.78;;;19.20;61.30
54556;BME280;57291;37.520;15.106;2023-04-27T10:28:03;101413.50;;;19.18;61.89
54556;BME280;57291;37.520;15.106;2023-04-27T10:30:36;101412.59;;;19.47;62.15
54556;BME280;57291;37.520;15.106;2023-04-27T10:33:06;101409.22;;;19.62;59.61
54556;BME280;57291;37.520;15.106;2023-04-27T10:35:37;101411.69;;;19.76;60.48
54556;BME280;57291;37.520;15.106;2023-04-27T10:38:17;101414.13;;;19.78;59.77
54556;BME280;57291;37.520;15.106;2023-04-27T10:40:52;101407.75;;;19.65;60.00
54556;BME280;57291;37.520;15.106;2023-04-27T10:43:23;101406.97;;;19.77;60.93
54556;BME280;57291;37.520;15.106;2023-04-27T10:45:51;101402.78;;;19.91;59.04
54556;BME280;57291;37.520;15.106;2023-04-27T10:48:19;101406.66;;;19.78;62.52
54556;BME280;57291;37.520;15.106;2023-04-27T10:50:49;101404.66;;;19.66;63.76
54556;BME280;57291;37.520;15.106;2023-04-27T10:53:16;101408.72;;;19.48;63.22
54556;BME280;57291;37.520;15.106;2023-04-27T10:55:44;101401.91;;;19.66;59.84
54556;BME280;57291;37.520;15.106;2023-04-27T10:58:13;101405.41;;;19.88;60.36
54556;BME280;57291;37.520;15.106;2023-04-27T11:00:40;101395.69;;;19.70;57.54
54556;BME280;57291;37.520;15.106;2023-04-27T11:03:15;101399.53;;;19.89;56.26
54556;BME280;57291;37.520;15.106;2023-04-27T11:05:59;101394.56;;;19.50;63.43
54556;BME280;57291;37.520;15.106;2023-04-27T11:08:27;101401.38;;;19.31;64.63
54556;BME280;57291;37.520;15.106;2023-04-27T11:10:56;101406.03;;;18.97;66.34
54556;BME280;57291;37.520;15.106;2023-04-27T11:13:24;101404.19;;;18.89;66.61
54556;BME280;57291;37.520;15.106;2023-04-27T11:15:57;101396.34;;;19.33;66.43
54556;BME280;57291;37.520;15.106;2023-04-27T11:18:26;101391.81;;;19.50;64.87
54556;BME280;57291;37.520;15.106;2023-04-27T11:21:14;101397.94;;;19.88;63.03
54556;BME280;57291;37.520;15.106;2023-04-27T11:23:42;101399.50;;;19.77;62.42
54556;BME280;57291;37.520;15.106;2023-04-27T11:26:10;101391.72;;;19.91;63.42
54556;BME280;57291;37.520;15.106;2023-04-27T11:28:37;101395.56;;;20.11;63.04
54556;BME280;57291;37.520;15.106;2023-04-27T11:31:05;101401.41;;;20.10;62.12
54556;BME280;57291;37.520;15.106;2023-04-27T11:33:33;101397.00;;;19.97;62.42
54556;BME280;57291;37.520;15.106;2023-04-27T11:36:02;101396.19;;;19.72;63.22
54556;BME280;57291;37.520;15.106;2023-04-27T11:38:32;101407.34;;;19.54;64.69
54556;BME280;57291;37.520;15.106;2023-04-27T11:41:04;101404.72;;;19.58;64.50
54556;BME280;57291;37.520;15.106;2023-04-27T11:43:32;101401.13;;;19.57;65.07
54556;BME280;57291;37.520;15.106;2023-04-27T11:46:03;101407.00;;;19.56;65.14
54556;BME280;57291;37.520;15.106;2023-04-27T11:48:35;101416.66;;;19.29;65.79
54556;BME280;57291;37.520;15.106;2023-04-27T11:51:04;101408.19;;;19.34;65.66
54556;BME280;57291;37.520;15.106;2023-04-27T11:53:38;101406.34;;;19.59;64.79
54556;BME280;57291;37.520;15.106;2023-04-27T11:56:06;101405.53;;;19.25;64.44
54556;BME280;57291;37.520;15.106;2023-04-27T11:58:38;101408.06;;;19.09;66.52
54556;BME280;57291;37.520;15.106;2023-04-27T12:01:06;101409.56;;;19.07;66.66
54556;BME280;57291;37.520;15.106;2023-04-27T12:03:33;101408.13;;;19.01;67.43
54556;BME280;57291;37.520;15.106;2023-04-27T12:06:01;101404.44;;;19.17;67.84
54556;BME280;57291;37.520;15.106;2023-04-27T12:08:48;101410.88;;;19.01;67.57
54556;BME280;57291;37.520;15.106;2023-04-27T12:11:17;101413.50;;;19.18;68.65
54556;BME280;57291;37.520;15.106;2023-04-27T12:13:44;101407.09;;;19.47;66.75
54556;BME280;57291;37.520;15.106;2023-04-27T12:16:12;101424.16;;;19.40;66.40
54556;BME280;57291;37.520;15.106;2023-04-27T12:18:40;101409.88;;;19.26;66.95
54556;BME280;57291;37.520;15.106;2023-04-27T12:21:07;101415.72;;;19.04;66.15
54556;BME280;57291;37.520;15.106;2023-04-27T12:23:35;101412.09;;;18.91;62.34
54556;BME280;57291;37.520;15.106;2023-04-27T12:26:03;101405.44;;;18.92;62.91
54556;BME280;57291;37.520;15.106;2023-04-27T12:28:30;101423.22;;;18.73;62.52
54556;BME280;57291;37.520;15.106;2023-04-27T12:30:57;101409.97;;;18.67;62.20
54556;BME280;57291;37.520;15.106;2023-04-27T12:33:24;101405.31;;;18.59;62.21
54556;BME280;57291;37.520;15.106;2023-04-27T12:35:52;101406.41;;;18.66;62.74
54556;BME280;57291;37.520;15.106;2023-04-27T12:38:19;101405.97;;;18.56;63.44
54556;BME280;57291;37.520;15.106;2023-04-27T12:40:47;101407.53;;;18.36;64.14
54556;BME280;57291;37.520;15.106;2023-04-27T12:43:14;101419.59;;;18.52;65.11
54556;BME280;57291;37.520;15.106;2023-04-27T12:45:41;101418.38;;;18.41;64.77
54556;BME280;57291;37.520;15.106;2023-04-27T12:48:08;101411.63;;;18.59;65.05
54556;BME280;57291;37.520;15.106;2023-04-27T12:50:36;101403.84;;;18.61;65.07
54556;BME280;57291;37.520;15.106;2023-04-27T12:53:03;101402.75;;;18.54;65.24
54556;BME280;57291;37.520;15.106;2023-04-27T12:55:31;101405.81;;;18.52;66.32